createdAt,value
2022-08-26T00:00:48.476Z,1009.17
2022-08-26T00:01:48.514Z,1009.28
2022-08-26T00:02:48.570Z,1009.27
2022-08-26T00:03:48.426Z,1009.23
2022-08-26T00:04:48.386Z,1009.28
2022-08-26T00:05:48.381Z,1009.28
2022-08-26T00:06:48.370Z,1009.28
2022-08-26T00:07:48.341Z,1009.37
2022-08-26T00:08:48.334Z,1009.40
2022-08-26T00:09:48.318Z,1009.42
2022-08-26T00:10:48.327Z,1009.41
2022-08-26T00:11:48.290Z,1009.42
2022-08-26T00:12:48.296Z,1009.41
2022-08-26T00:13:49.476Z,1009.38
2022-08-26T00:14:48.254Z,1009.36
2022-08-26T00:15:48.251Z,1009.48
2022-08-26T00:16:49.045Z,1009.47
2022-08-26T00:17:48.214Z,1009.46
2022-08-26T00:18:48.200Z,1009.49
2022-08-26T00:19:48.187Z,1009.49
2022-08-26T00:20:48.639Z,1009.47
2022-08-26T00:21:48.725Z,1009.47
2022-08-26T00:22:48.150Z,1009.55
2022-08-26T00:23:48.137Z,1009.51
2022-08-26T00:24:48.208Z,1009.51
2022-08-26T00:25:48.142Z,1009.50
2022-08-26T00:26:48.111Z,1009.50
2022-08-26T00:27:48.082Z,1009.57
2022-08-26T00:28:48.079Z,1009.57
2022-08-26T00:29:48.060Z,1009.54
2022-08-26T00:30:48.059Z,1009.55
2022-08-26T00:31:48.071Z,1009.56
2022-08-26T00:32:48.023Z,1009.60
2022-08-26T00:33:48.007Z,1009.61
2022-08-26T00:34:54.033Z,1009.65
2022-08-26T00:35:48.027Z,1009.60
2022-08-26T00:36:51.914Z,1009.59
2022-08-26T00:37:48.632Z,1009.57
2022-08-26T00:38:48.069Z,1009.58
2022-08-26T00:39:48.014Z,1009.59
2022-08-26T00:40:47.938Z,1009.59
2022-08-26T00:41:47.935Z,1009.58
2022-08-26T00:42:47.906Z,1009.59
2022-08-26T00:43:48.149Z,1009.66
2022-08-26T00:44:47.887Z,1009.64
2022-08-26T00:45:47.967Z,1009.63
2022-08-26T00:46:47.900Z,1009.66
2022-08-26T00:47:47.859Z,1009.61
2022-08-26T00:48:47.828Z,1009.62
2022-08-26T00:49:47.829Z,1009.63
2022-08-26T00:50:47.866Z,1009.68
2022-08-26T00:51:47.803Z,1009.66
2022-08-26T00:52:48.264Z,1009.70
2022-08-26T00:53:47.768Z,1009.72
2022-08-26T00:54:47.753Z,1009.70
2022-08-26T00:55:47.768Z,1009.72
2022-08-26T00:56:47.728Z,1009.73
2022-08-26T00:57:47.715Z,1009.71
2022-08-26T00:58:47.699Z,1009.74
2022-08-26T00:59:47.867Z,1009.70
2022-08-26T01:00:47.745Z,1009.69
2022-08-26T01:01:47.735Z,1009.71
2022-08-26T01:02:47.679Z,1009.76
2022-08-26T01:03:47.642Z,1009.83
2022-08-26T01:04:47.620Z,1009.82
2022-08-26T01:05:47.625Z,1009.87
2022-08-26T01:06:47.592Z,1009.86
2022-08-26T01:07:47.596Z,1009.85
2022-08-26T01:08:47.565Z,1009.86
2022-08-26T01:09:47.556Z,1009.83
2022-08-26T01:10:47.575Z,1009.82
2022-08-26T01:11:47.547Z,1009.83
2022-08-26T01:12:47.532Z,1009.80
2022-08-26T01:13:47.520Z,1009.78
2022-08-26T01:14:47.493Z,1009.85
2022-08-26T01:15:47.509Z,1009.82
2022-08-26T01:16:47.500Z,1009.78
2022-08-26T01:17:47.532Z,1009.77
2022-08-26T01:18:47.455Z,1009.76
2022-08-26T01:19:47.426Z,1009.77
2022-08-26T01:20:47.451Z,1009.79
2022-08-26T01:21:47.403Z,1009.78
2022-08-26T01:22:47.409Z,1009.83
2022-08-26T01:23:47.371Z,1009.81
2022-08-26T01:24:47.375Z,1009.88
2022-08-26T01:25:47.344Z,1009.89
2022-08-26T01:26:47.387Z,1009.89
2022-08-26T01:29:55.432Z,1009.87
2022-08-26T01:30:55.945Z,1009.89
2022-08-26T01:31:56.017Z,1009.91
2022-08-26T01:32:55.888Z,1009.84
2022-08-26T01:33:55.892Z,1009.88
2022-08-26T01:34:55.854Z,1009.87
2022-08-26T01:35:55.857Z,1009.90
2022-08-26T01:36:55.855Z,1009.93
2022-08-26T01:37:55.822Z,1009.89
2022-08-26T01:38:55.838Z,1009.95
2022-08-26T01:39:55.812Z,1009.92
2022-08-26T01:40:55.794Z,1009.94
2022-08-26T01:41:55.778Z,1009.98
2022-08-26T01:42:55.745Z,1009.91
2022-08-26T01:43:55.733Z,1009.92
2022-08-26T01:44:55.736Z,1009.91
2022-08-26T01:45:55.754Z,1009.97
2022-08-26T01:46:55.717Z,1009.97
2022-08-26T01:47:56.749Z,1009.99
2022-08-26T01:48:55.692Z,1010.01
2022-08-26T01:49:55.697Z,1010.01
2022-08-26T01:50:55.672Z,1010.07
2022-08-26T01:51:55.651Z,1010.07
2022-08-26T01:52:55.633Z,1010.07
2022-08-26T01:53:55.606Z,1010.10
2022-08-26T01:54:55.607Z,1010.13
2022-08-26T01:55:55.602Z,1010.12
2022-08-26T01:56:55.574Z,1010.10
2022-08-26T01:57:56.330Z,1010.09
2022-08-26T01:58:55.541Z,1010.14
2022-08-26T01:59:55.529Z,1010.10
2022-08-26T02:00:55.582Z,1010.13
2022-08-26T02:01:55.512Z,1010.14
2022-08-26T02:02:55.491Z,1010.14
2022-08-26T02:03:55.475Z,1010.16
2022-08-26T02:04:55.524Z,1010.17
2022-08-26T02:05:55.494Z,1010.19
2022-08-26T02:06:55.441Z,1010.16
2022-08-26T02:07:55.426Z,1010.18
2022-08-26T02:08:55.422Z,1010.17
2022-08-26T02:09:55.413Z,1010.17
2022-08-26T02:10:55.404Z,1010.18
2022-08-26T02:11:55.385Z,1010.18
2022-08-26T02:12:55.378Z,1010.24
2022-08-26T02:13:55.352Z,1010.25
2022-08-26T02:14:55.335Z,1010.23
2022-08-26T02:15:55.440Z,1010.25
2022-08-26T02:16:55.312Z,1010.28
2022-08-26T02:17:55.307Z,1010.27
2022-08-26T02:18:55.289Z,1010.30
2022-08-26T02:19:55.313Z,1010.35
2022-08-26T02:20:55.278Z,1010.28
2022-08-26T02:21:55.243Z,1010.31
2022-08-26T02:22:55.235Z,1010.33
2022-08-26T02:23:56.043Z,1010.32
2022-08-26T02:24:55.212Z,1010.35
2022-08-26T02:25:55.236Z,1010.37
2022-08-26T02:26:55.221Z,1010.36
2022-08-26T02:29:55.763Z,1010.35
2022-08-26T02:30:56.771Z,1010.34
2022-08-26T02:31:56.740Z,1010.37
2022-08-26T02:32:56.725Z,1010.33
2022-08-26T02:33:56.728Z,1010.36
2022-08-26T02:34:56.699Z,1010.37
2022-08-26T02:35:56.705Z,1010.33
2022-08-26T02:36:56.673Z,1010.37
2022-08-26T02:37:56.656Z,1010.34
2022-08-26T02:38:56.650Z,1010.35
2022-08-26T02:39:56.650Z,1010.36
2022-08-26T02:40:56.643Z,1010.33
2022-08-26T02:41:56.611Z,1010.35
2022-08-26T02:42:57.065Z,1010.34
2022-08-26T02:43:56.591Z,1010.40
2022-08-26T02:44:56.566Z,1010.40
2022-08-26T02:45:56.569Z,1010.41
2022-08-26T02:46:56.587Z,1010.38
2022-08-26T02:47:56.547Z,1010.34
2022-08-26T02:48:56.525Z,1010.41
2022-08-26T02:49:56.520Z,1010.37
2022-08-26T02:50:56.515Z,1010.34
2022-08-26T02:51:56.492Z,1010.36
2022-08-26T02:52:56.464Z,1010.38
2022-08-26T02:53:56.446Z,1010.37
2022-08-26T02:54:56.490Z,1010.39
2022-08-26T02:55:56.436Z,1010.40
2022-08-26T02:56:56.441Z,1010.41
2022-08-26T02:57:56.421Z,1010.45
2022-08-26T02:58:56.384Z,1010.41
2022-08-26T02:59:56.388Z,1010.44
2022-08-26T03:00:56.435Z,1010.40
2022-08-26T03:01:56.434Z,1010.38
2022-08-26T03:02:56.326Z,1010.37
2022-08-26T03:03:56.308Z,1010.41
2022-08-26T03:04:57.529Z,1010.43
2022-08-26T03:05:56.308Z,1010.39
2022-08-26T03:06:56.313Z,1010.38
2022-08-26T03:07:56.267Z,1010.39
2022-08-26T03:08:56.258Z,1010.38
2022-08-26T03:09:56.231Z,1010.39
2022-08-26T03:10:56.232Z,1010.41
2022-08-26T03:11:56.230Z,1010.38
2022-08-26T03:12:56.214Z,1010.39
2022-08-26T03:13:56.179Z,1010.38
2022-08-26T03:14:56.218Z,1010.37
2022-08-26T03:15:56.256Z,1010.34
2022-08-26T03:16:56.153Z,1010.37
2022-08-26T03:17:56.146Z,1010.36
2022-08-26T03:18:56.187Z,1010.38
2022-08-26T03:19:57.295Z,1010.40
2022-08-26T03:20:56.112Z,1010.40
2022-08-26T03:21:57.960Z,1010.37
2022-08-26T03:22:56.106Z,1010.37
2022-08-26T03:23:56.074Z,1010.36
2022-08-26T03:24:56.031Z,1010.41
2022-08-26T03:25:56.084Z,1010.38
2022-08-26T03:26:56.014Z,1010.40
2022-08-26T03:27:55.996Z,1010.41
2022-08-26T03:28:55.994Z,1010.36
2022-08-26T03:29:55.972Z,1010.39
2022-08-26T03:30:55.994Z,1010.40
2022-08-26T03:31:55.937Z,1010.40
2022-08-26T03:32:55.942Z,1010.40
2022-08-26T03:33:59.201Z,1010.39
2022-08-26T03:34:55.956Z,1010.41
2022-08-26T03:35:55.914Z,1010.35
2022-08-26T03:36:55.897Z,1010.40
2022-08-26T03:37:55.869Z,1010.34
2022-08-26T03:38:55.844Z,1010.36
2022-08-26T03:39:55.905Z,1010.38
2022-08-26T03:40:55.848Z,1010.35
2022-08-26T03:41:55.849Z,1010.40
2022-08-26T03:42:55.814Z,1010.39
2022-08-26T03:44:00.965Z,1010.33
2022-08-26T03:44:55.879Z,1010.31
2022-08-26T03:45:55.759Z,1010.36
2022-08-26T03:46:55.810Z,1010.36
2022-08-26T03:47:55.728Z,1010.34
2022-08-26T03:48:55.714Z,1010.37
2022-08-26T03:49:55.703Z,1010.28
2022-08-26T03:50:55.689Z,1010.34
2022-08-26T03:51:55.692Z,1010.34
2022-08-26T03:52:55.662Z,1010.37
2022-08-26T03:53:55.647Z,1010.36
2022-08-26T03:54:55.633Z,1010.37
2022-08-26T03:55:55.627Z,1010.39
2022-08-26T03:56:55.627Z,1010.36
2022-08-26T03:57:55.596Z,1010.38
2022-08-26T03:58:55.579Z,1010.40
2022-08-26T03:59:55.584Z,1010.41
2022-08-26T04:00:55.930Z,1010.42
2022-08-26T04:01:55.603Z,1010.39
2022-08-26T04:02:55.510Z,1010.43
2022-08-26T04:03:55.526Z,1010.44
2022-08-26T04:04:55.509Z,1010.41
2022-08-26T04:05:55.491Z,1010.43
2022-08-26T04:06:55.495Z,1010.46
2022-08-26T04:07:55.430Z,1010.45
2022-08-26T04:08:55.393Z,1010.45
2022-08-26T04:09:55.446Z,1010.46
2022-08-26T04:10:55.419Z,1010.42
2022-08-26T04:11:55.381Z,1010.44
2022-08-26T04:12:55.335Z,1010.43
2022-08-26T04:13:55.339Z,1010.46
2022-08-26T04:14:55.364Z,1010.43
2022-08-26T04:15:55.356Z,1010.41
2022-08-26T04:16:55.499Z,1010.45
2022-08-26T04:17:56.105Z,1010.44
2022-08-26T04:18:55.291Z,1010.42
2022-08-26T04:19:55.249Z,1010.41
2022-08-26T04:20:55.233Z,1010.45
2022-08-26T04:21:55.238Z,1010.46
2022-08-26T04:22:55.246Z,1010.48
2022-08-26T04:23:55.198Z,1010.45
2022-08-26T04:24:55.179Z,1010.45
2022-08-26T04:25:55.172Z,1010.44
2022-08-26T04:26:55.165Z,1010.45
2022-08-26T04:27:55.154Z,1010.49
2022-08-26T04:28:55.147Z,1010.47
2022-08-26T04:29:55.448Z,1010.48
2022-08-26T04:30:55.327Z,1010.47
2022-08-26T04:31:55.381Z,1010.48
2022-08-26T04:32:55.079Z,1010.50
2022-08-26T04:33:55.108Z,1010.51
2022-08-26T04:34:55.036Z,1010.45
2022-08-26T04:35:55.036Z,1010.48
2022-08-26T04:36:55.049Z,1010.51
2022-08-26T04:37:55.029Z,1010.50
2022-08-26T04:38:54.990Z,1010.51
2022-08-26T04:39:55.054Z,1010.54
2022-08-26T04:40:54.958Z,1010.53
2022-08-26T04:41:54.976Z,1010.54
2022-08-26T04:42:54.991Z,1010.51
2022-08-26T04:43:54.930Z,1010.52
2022-08-26T04:44:54.910Z,1010.57
2022-08-26T04:45:54.917Z,1010.53
2022-08-26T04:46:55.021Z,1010.56
2022-08-26T04:47:54.879Z,1010.55
2022-08-26T04:48:54.872Z,1010.62
2022-08-26T04:49:54.860Z,1010.64
2022-08-26T04:50:54.921Z,1010.61
2022-08-26T04:51:54.853Z,1010.64
2022-08-26T04:52:54.803Z,1010.64
2022-08-26T04:53:54.794Z,1010.64
2022-08-26T04:54:54.773Z,1010.64
2022-08-26T04:55:55.249Z,1010.65
2022-08-26T04:56:54.810Z,1010.69
2022-08-26T04:57:54.750Z,1010.62
2022-08-26T04:58:54.744Z,1010.64
2022-08-26T04:59:54.722Z,1010.65
2022-08-26T05:00:55.129Z,1010.66
2022-08-26T05:01:54.748Z,1010.64
2022-08-26T05:02:54.680Z,1010.65
2022-08-26T05:03:54.706Z,1010.66
2022-08-26T05:04:54.645Z,1010.66
2022-08-26T05:05:54.633Z,1010.64
2022-08-26T05:06:59.276Z,1010.61
2022-08-26T05:07:54.618Z,1010.67
2022-08-26T05:08:54.591Z,1010.63
2022-08-26T05:09:54.590Z,1010.66
2022-08-26T05:10:54.574Z,1010.68
2022-08-26T05:11:54.580Z,1010.64
2022-08-26T05:19:59.169Z,1010.70
2022-08-26T05:20:59.760Z,1010.65
2022-08-26T05:21:59.731Z,1010.67
2022-08-26T05:22:59.714Z,1010.72
2022-08-26T05:23:59.690Z,1010.75
2022-08-26T05:24:59.682Z,1010.70
2022-08-26T05:26:00.363Z,1010.71
2022-08-26T05:26:59.690Z,1010.71
2022-08-26T05:29:54.444Z,1010.68
2022-08-26T05:30:54.214Z,1010.70
2022-08-26T05:31:54.179Z,1010.69
2022-08-26T05:32:55.408Z,1010.68
2022-08-26T05:33:54.142Z,1010.73
2022-08-26T05:34:54.119Z,1010.72
2022-08-26T05:35:54.130Z,1010.73
2022-08-26T05:36:54.103Z,1010.70
2022-08-26T05:37:54.082Z,1010.71
2022-08-26T05:38:54.071Z,1010.72
2022-08-26T05:39:54.124Z,1010.73
2022-08-26T05:40:54.099Z,1010.71
2022-08-26T05:41:54.032Z,1010.71
2022-08-26T05:42:54.019Z,1010.71
2022-08-26T05:43:54.021Z,1010.71
2022-08-26T05:44:56.026Z,1010.73
2022-08-26T05:45:54.052Z,1010.75
2022-08-26T05:46:53.974Z,1010.76
2022-08-26T05:47:53.963Z,1010.75
2022-08-26T05:48:53.970Z,1010.76
2022-08-26T05:49:53.934Z,1010.74
2022-08-26T05:50:53.979Z,1010.73
2022-08-26T05:51:53.898Z,1010.78
2022-08-26T05:52:53.889Z,1010.77
2022-08-26T05:53:54.740Z,1010.75
2022-08-26T05:54:53.934Z,1010.72
2022-08-26T05:55:54.155Z,1010.75
2022-08-26T05:56:53.877Z,1010.79
2022-08-26T05:57:53.844Z,1010.70
2022-08-26T05:58:53.811Z,1010.75
2022-08-26T05:59:53.796Z,1010.74
2022-08-26T06:00:53.822Z,1010.77
2022-08-26T06:01:53.842Z,1010.77
2022-08-26T06:02:53.835Z,1010.77
2022-08-26T06:03:53.750Z,1010.79
2022-08-26T06:04:53.849Z,1010.78
2022-08-26T06:05:53.744Z,1010.81
2022-08-26T06:06:53.732Z,1010.82
2022-08-26T06:07:53.730Z,1010.84
2022-08-26T06:08:53.696Z,1010.85
2022-08-26T06:10:01.632Z,1010.81
2022-08-26T06:10:53.722Z,1010.82
2022-08-26T06:11:53.711Z,1010.84
2022-08-26T06:12:53.644Z,1010.87
2022-08-26T06:13:53.625Z,1010.85
2022-08-26T06:14:53.612Z,1010.87
2022-08-26T06:15:53.643Z,1010.88
2022-08-26T06:16:53.570Z,1010.90
2022-08-26T06:17:53.586Z,1010.89
2022-08-26T06:18:53.560Z,1010.86
2022-08-26T06:19:53.556Z,1010.91
2022-08-26T06:20:57.773Z,1010.87
2022-08-26T06:21:54.882Z,1010.92
2022-08-26T06:22:53.508Z,1010.92
2022-08-26T06:23:53.494Z,1010.89
2022-08-26T06:24:53.500Z,1010.85
2022-08-26T06:25:53.489Z,1010.85
2022-08-26T06:26:53.479Z,1010.86
2022-08-26T06:29:53.997Z,1010.90
2022-08-26T06:30:55.062Z,1010.88
2022-08-26T06:31:56.180Z,1010.88
2022-08-26T06:32:55.012Z,1010.92
2022-08-26T06:33:54.937Z,1010.88
2022-08-26T06:34:54.924Z,1010.93
2022-08-26T06:35:54.922Z,1010.89
2022-08-26T06:36:54.901Z,1010.92
2022-08-26T06:37:54.876Z,1010.95
2022-08-26T06:38:54.870Z,1010.94
2022-08-26T06:39:54.921Z,1010.95
2022-08-26T06:40:54.866Z,1010.95
2022-08-26T06:41:54.827Z,1010.96
2022-08-26T06:42:54.823Z,1010.96
2022-08-26T06:43:54.804Z,1010.97
2022-08-26T06:44:54.787Z,1010.96
2022-08-26T06:45:54.848Z,1010.97
2022-08-26T06:46:54.820Z,1010.94
2022-08-26T06:47:54.745Z,1010.91
2022-08-26T06:48:54.736Z,1010.92
2022-08-26T06:49:54.721Z,1010.92
2022-08-26T06:50:54.747Z,1010.94
2022-08-26T06:51:54.745Z,1010.92
2022-08-26T06:52:54.704Z,1010.94
2022-08-26T06:53:54.673Z,1010.95
2022-08-26T06:54:54.704Z,1010.92
2022-08-26T06:55:54.708Z,1010.91
2022-08-26T06:56:54.628Z,1010.92
2022-08-26T06:57:54.617Z,1010.95
2022-08-26T06:58:54.604Z,1010.96
2022-08-26T06:59:54.585Z,1010.96
2022-08-26T07:00:54.597Z,1010.96
2022-08-26T07:01:54.849Z,1010.97
2022-08-26T07:02:54.606Z,1010.99
2022-08-26T07:03:54.562Z,1010.97
2022-08-26T07:04:54.605Z,1011.01
2022-08-26T07:05:54.528Z,1011.02
2022-08-26T07:06:54.491Z,1011.07
2022-08-26T07:07:54.482Z,1011.07
2022-08-26T07:08:54.471Z,1011.09
2022-08-26T07:09:54.453Z,1011.09
2022-08-26T07:10:55.840Z,1011.10
2022-08-26T07:11:54.430Z,1011.08
2022-08-26T07:19:53.669Z,1011.12
2022-08-26T07:20:54.655Z,1011.16
2022-08-26T07:21:54.629Z,1011.13
2022-08-26T07:22:54.607Z,1011.17
2022-08-26T07:23:58.727Z,1011.12
2022-08-26T07:24:54.586Z,1011.15
2022-08-26T07:25:54.584Z,1011.13
2022-08-26T07:26:54.559Z,1011.15
2022-08-26T07:27:54.653Z,1011.16
2022-08-26T07:28:54.533Z,1011.17
2022-08-26T07:29:54.537Z,1011.16
2022-08-26T07:30:54.591Z,1011.19
2022-08-26T07:31:54.518Z,1011.23
2022-08-26T07:33:00.968Z,1011.22
2022-08-26T07:33:54.440Z,1011.19
2022-08-26T07:34:54.437Z,1011.21
2022-08-26T07:35:54.433Z,1011.23
2022-08-26T07:36:55.356Z,1011.26
2022-08-26T07:37:57.075Z,1011.24
2022-08-26T07:38:54.397Z,1011.27
2022-08-26T07:39:54.405Z,1011.27
2022-08-26T07:40:54.429Z,1011.24
2022-08-26T07:41:54.361Z,1011.27
2022-08-26T07:42:54.353Z,1011.30
2022-08-26T07:43:54.326Z,1011.31
2022-08-26T07:44:54.311Z,1011.28
2022-08-26T07:45:54.298Z,1011.30
2022-08-26T07:46:54.277Z,1011.32
2022-08-26T07:47:54.259Z,1011.32
2022-08-26T07:48:54.250Z,1011.33
2022-08-26T07:49:54.298Z,1011.33
2022-08-26T07:50:54.275Z,1011.33
2022-08-26T07:51:54.229Z,1011.32
2022-08-26T07:52:54.196Z,1011.36
2022-08-26T07:53:54.181Z,1011.33
2022-08-26T07:54:54.208Z,1011.36
2022-08-26T07:55:54.181Z,1011.37
2022-08-26T07:56:54.141Z,1011.33
2022-08-26T07:57:54.133Z,1011.42
2022-08-26T07:58:54.123Z,1011.38
2022-08-26T07:59:55.178Z,1011.36
2022-08-26T08:00:54.116Z,1011.44
2022-08-26T08:01:54.292Z,1011.41
2022-08-26T08:02:54.064Z,1011.43
2022-08-26T08:03:54.050Z,1011.38
2022-08-26T08:04:54.071Z,1011.43
2022-08-26T08:05:54.040Z,1011.41
2022-08-26T08:06:54.023Z,1011.40
2022-08-26T08:07:54.058Z,1011.43
2022-08-26T08:08:53.994Z,1011.40
2022-08-26T08:09:53.976Z,1011.39
2022-08-26T08:10:54.032Z,1011.43
2022-08-26T08:11:53.953Z,1011.41
2022-08-26T08:12:53.933Z,1011.41
2022-08-26T08:13:56.413Z,1011.40
2022-08-26T08:14:53.918Z,1011.38
2022-08-26T08:15:53.909Z,1011.39
2022-08-26T08:16:54.744Z,1011.41
2022-08-26T08:17:55.660Z,1011.40
2022-08-26T08:18:53.896Z,1011.40
2022-08-26T08:19:53.839Z,1011.42
2022-08-26T08:20:59.417Z,1011.42
2022-08-26T08:21:53.831Z,1011.46
2022-08-26T08:22:53.889Z,1011.42
2022-08-26T08:23:53.789Z,1011.46
2022-08-26T08:24:53.784Z,1011.44
2022-08-26T08:25:53.780Z,1011.43
2022-08-26T08:26:53.755Z,1011.45
2022-08-26T08:27:53.742Z,1011.51
2022-08-26T08:28:53.737Z,1011.46
2022-08-26T08:29:53.719Z,1011.49
2022-08-26T08:30:53.766Z,1011.47
2022-08-26T08:31:57.952Z,1011.50
2022-08-26T08:32:53.679Z,1011.48
2022-08-26T08:33:53.659Z,1011.50
2022-08-26T08:34:53.654Z,1011.46
2022-08-26T08:35:53.650Z,1011.51
2022-08-26T08:36:53.839Z,1011.52
2022-08-26T08:37:53.638Z,1011.54
2022-08-26T08:38:53.596Z,1011.56
2022-08-26T08:39:53.613Z,1011.54
2022-08-26T08:40:53.595Z,1011.55
2022-08-26T08:41:53.558Z,1011.56
2022-08-26T08:43:53.534Z,1011.54
2022-08-26T08:44:53.521Z,1011.55
2022-08-26T08:45:53.608Z,1011.55
2022-08-26T08:46:53.507Z,1011.56
2022-08-26T08:47:54.647Z,1011.52
2022-08-26T08:48:53.468Z,1011.55
2022-08-26T08:49:53.502Z,1011.53
2022-08-26T08:50:53.452Z,1011.54
2022-08-26T08:51:53.436Z,1011.55
2022-08-26T08:52:53.431Z,1011.56
2022-08-26T08:53:54.650Z,1011.53
2022-08-26T08:54:53.403Z,1011.55
2022-08-26T08:55:53.410Z,1011.52
2022-08-26T08:56:53.378Z,1011.57
2022-08-26T08:57:53.661Z,1011.59
2022-08-26T08:58:53.358Z,1011.59
2022-08-26T08:59:53.320Z,1011.61
2022-08-26T09:00:53.388Z,1011.64
2022-08-26T09:01:54.124Z,1011.61
2022-08-26T09:02:53.291Z,1011.59
2022-08-26T09:03:53.294Z,1011.60
2022-08-26T09:04:53.267Z,1011.58
2022-08-26T09:05:53.259Z,1011.61
2022-08-26T09:06:53.294Z,1011.63
2022-08-26T09:07:53.220Z,1011.60
2022-08-26T09:08:53.206Z,1011.57
2022-08-26T09:09:53.190Z,1011.61
2022-08-26T09:10:53.201Z,1011.62
2022-08-26T09:11:53.168Z,1011.59
2022-08-26T09:12:53.161Z,1011.63
2022-08-26T09:13:53.138Z,1011.66
2022-08-26T09:14:53.137Z,1011.64
2022-08-26T09:15:53.127Z,1011.67
2022-08-26T09:16:53.214Z,1011.60
2022-08-26T09:17:53.161Z,1011.62
2022-08-26T09:18:53.119Z,1011.59
2022-08-26T09:19:53.116Z,1011.64
2022-08-26T09:20:53.073Z,1011.61
2022-08-26T09:21:53.302Z,1011.65
2022-08-26T09:22:53.028Z,1011.66
2022-08-26T09:23:53.007Z,1011.64
2022-08-26T09:24:53.003Z,1011.68
2022-08-26T09:26:52.976Z,1011.71
2022-08-26T09:27:53.122Z,1011.70
2022-08-26T09:28:52.957Z,1011.69
2022-08-26T09:29:52.934Z,1011.72
2022-08-26T09:30:52.988Z,1011.70
2022-08-26T09:31:52.922Z,1011.68
2022-08-26T09:32:55.972Z,1011.66
2022-08-26T09:33:52.880Z,1011.68
2022-08-26T09:34:52.956Z,1011.68
2022-08-26T09:35:52.861Z,1011.68
2022-08-26T09:36:52.840Z,1011.68
2022-08-26T09:37:52.881Z,1011.66
2022-08-26T09:38:52.827Z,1011.65
2022-08-26T09:39:52.888Z,1011.66
2022-08-26T09:40:58.935Z,1011.71
2022-08-26T09:41:52.798Z,1011.65
2022-08-26T09:42:52.773Z,1011.75
2022-08-26T09:43:52.763Z,1011.71
2022-08-26T09:44:52.756Z,1011.70
2022-08-26T09:45:54.967Z,1011.73
2022-08-26T09:46:52.771Z,1011.75
2022-08-26T09:47:52.699Z,1011.72
2022-08-26T09:48:53.166Z,1011.72
2022-08-26T09:49:52.688Z,1011.72
2022-08-26T09:50:52.657Z,1011.73
2022-08-26T09:51:52.644Z,1011.70
2022-08-26T09:52:52.632Z,1011.74
2022-08-26T09:53:52.615Z,1011.72
2022-08-26T09:54:52.619Z,1011.72
2022-08-26T09:55:52.587Z,1011.70
2022-08-26T09:56:52.583Z,1011.73
2022-08-26T09:57:52.596Z,1011.75
2022-08-26T09:58:52.558Z,1011.75
2022-08-26T09:59:52.556Z,1011.72
2022-08-26T10:00:52.545Z,1011.73
2022-08-26T10:01:52.786Z,1011.71
2022-08-26T10:02:54.787Z,1011.69
2022-08-26T10:03:52.562Z,1011.71
2022-08-26T10:04:52.508Z,1011.71
2022-08-26T10:05:52.459Z,1011.74
2022-08-26T10:06:52.491Z,1011.67
2022-08-26T10:07:52.436Z,1011.68
2022-08-26T10:08:52.437Z,1011.68
2022-08-26T10:09:52.567Z,1011.67
2022-08-26T10:10:53.135Z,1011.66
2022-08-26T10:11:52.383Z,1011.66
2022-08-26T10:12:52.374Z,1011.64
2022-08-26T10:13:52.362Z,1011.63
2022-08-26T10:14:52.392Z,1011.62
2022-08-26T10:15:52.338Z,1011.59
2022-08-26T10:16:52.370Z,1011.61
2022-08-26T10:17:52.375Z,1011.63
2022-08-26T10:18:54.726Z,1011.66
2022-08-26T10:19:57.057Z,1011.56
2022-08-26T10:20:52.278Z,1011.63
2022-08-26T10:21:54.039Z,1011.61
2022-08-26T10:22:52.246Z,1011.62
2022-08-26T10:23:52.238Z,1011.58
2022-08-26T10:24:55.177Z,1011.57
2022-08-26T10:25:52.199Z,1011.63
2022-08-26T10:26:52.211Z,1011.65
2022-08-26T10:27:53.815Z,1011.58
2022-08-26T10:28:52.196Z,1011.60
2022-08-26T10:29:52.529Z,1011.61
2022-08-26T10:30:52.148Z,1011.60
2022-08-26T10:31:52.178Z,1011.61
2022-08-26T10:32:52.118Z,1011.59
2022-08-26T10:33:55.456Z,1011.64
2022-08-26T10:34:52.120Z,1011.63
2022-08-26T10:35:52.097Z,1011.61
2022-08-26T10:37:14.785Z,1011.58
2022-08-26T10:37:52.056Z,1011.61
2022-08-26T10:38:52.039Z,1011.63
2022-08-26T10:39:56.962Z,1011.59
2022-08-26T10:40:52.076Z,1011.57
2022-08-26T10:41:52.048Z,1011.53
2022-08-26T10:42:51.997Z,1011.60
2022-08-26T10:43:51.966Z,1011.57
2022-08-26T10:44:51.963Z,1011.57
2022-08-26T10:45:52.036Z,1011.59
2022-08-26T10:46:51.938Z,1011.57
2022-08-26T10:47:51.924Z,1011.56
2022-08-26T10:48:52.095Z,1011.50
2022-08-26T10:49:51.898Z,1011.52
2022-08-26T10:50:51.903Z,1011.50
2022-08-26T10:51:51.891Z,1011.50
2022-08-26T10:52:51.861Z,1011.49
2022-08-26T10:53:51.896Z,1011.48
2022-08-26T10:54:51.844Z,1011.50
2022-08-26T10:55:51.834Z,1011.50
2022-08-26T10:56:51.826Z,1011.47
2022-08-26T10:57:51.832Z,1011.49
2022-08-26T10:58:51.780Z,1011.51
2022-08-26T10:59:51.796Z,1011.47
2022-08-26T11:00:51.814Z,1011.51
2022-08-26T11:01:52.567Z,1011.46
2022-08-26T11:02:51.745Z,1011.45
2022-08-26T11:03:51.845Z,1011.49
2022-08-26T11:04:51.781Z,1011.49
2022-08-26T11:05:51.711Z,1011.45
2022-08-26T11:06:51.679Z,1011.46
2022-08-26T11:07:51.668Z,1011.43
2022-08-26T11:08:51.667Z,1011.42
2022-08-26T11:09:51.683Z,1011.44
2022-08-26T11:10:51.677Z,1011.44
2022-08-26T11:11:51.636Z,1011.44
2022-08-26T11:12:51.598Z,1011.44
2022-08-26T11:13:51.610Z,1011.44
2022-08-26T11:14:56.211Z,1011.45
2022-08-26T11:15:51.600Z,1011.39
2022-08-26T11:16:51.622Z,1011.39
2022-08-26T11:17:51.558Z,1011.41
2022-08-26T11:18:51.524Z,1011.39
2022-08-26T11:20:01.044Z,1011.37
2022-08-26T11:20:51.571Z,1011.37
2022-08-26T11:21:51.503Z,1011.35
2022-08-26T11:22:51.484Z,1011.38
2022-08-26T11:23:52.924Z,1011.33
2022-08-26T11:24:51.485Z,1011.35
2022-08-26T11:25:51.441Z,1011.32
2022-08-26T11:26:56.182Z,1011.36
2022-08-26T11:27:51.418Z,1011.29
2022-08-26T11:28:51.403Z,1011.36
2022-08-26T11:29:51.405Z,1011.34
2022-08-26T11:30:56.991Z,1011.32
2022-08-26T11:31:51.416Z,1011.31
2022-08-26T11:32:51.341Z,1011.32
2022-08-26T11:33:51.335Z,1011.27
2022-08-26T11:34:51.344Z,1011.26
2022-08-26T11:35:52.205Z,1011.25
2022-08-26T11:36:51.295Z,1011.27
2022-08-26T11:37:51.277Z,1011.26
2022-08-26T11:38:51.273Z,1011.28
2022-08-26T11:39:54.668Z,1011.30
2022-08-26T11:40:51.252Z,1011.27
2022-08-26T11:41:52.633Z,1011.24
2022-08-26T11:42:51.236Z,1011.26
2022-08-26T11:43:51.226Z,1011.24
2022-08-26T11:44:51.198Z,1011.25
2022-08-26T11:45:51.226Z,1011.21
2022-08-26T11:46:51.164Z,1011.20
2022-08-26T11:47:51.151Z,1011.16
2022-08-26T11:48:51.132Z,1011.19
2022-08-26T11:49:51.344Z,1011.18
2022-08-26T11:50:51.114Z,1011.18
2022-08-26T11:51:51.097Z,1011.17
2022-08-26T11:52:51.082Z,1011.18
2022-08-26T11:53:51.078Z,1011.23
2022-08-26T11:54:51.077Z,1011.25
2022-08-26T11:55:51.045Z,1011.24
2022-08-26T11:56:51.035Z,1011.19
2022-08-26T11:57:51.021Z,1011.20
2022-08-26T11:58:51.048Z,1011.18
2022-08-26T11:59:51.020Z,1011.21
2022-08-26T12:00:50.978Z,1011.18
2022-08-26T12:01:50.984Z,1011.17
2022-08-26T12:02:50.988Z,1011.20
2022-08-26T12:03:51.117Z,1011.21
2022-08-26T12:04:51.148Z,1011.20
2022-08-26T12:05:51.212Z,1011.28
2022-08-26T12:06:50.949Z,1011.20
2022-08-26T12:07:50.897Z,1011.27
2022-08-26T12:08:50.900Z,1011.23
2022-08-26T12:09:50.892Z,1011.18
2022-08-26T12:10:50.850Z,1011.27
2022-08-26T12:11:50.851Z,1011.29
2022-08-26T12:12:50.828Z,1011.28
2022-08-26T12:13:50.825Z,1011.26
2022-08-26T12:14:50.814Z,1011.23
2022-08-26T12:15:50.798Z,1011.23
2022-08-26T12:16:50.826Z,1011.23
2022-08-26T12:17:54.453Z,1011.21
2022-08-26T12:18:50.751Z,1011.20
2022-08-26T12:19:50.748Z,1011.22
2022-08-26T12:20:50.894Z,1011.20
2022-08-26T12:21:50.716Z,1011.19
2022-08-26T12:22:50.707Z,1011.24
2022-08-26T12:23:50.695Z,1011.21
2022-08-26T12:24:50.691Z,1011.23
2022-08-26T12:25:50.665Z,1011.19
2022-08-26T12:26:50.645Z,1011.25
2022-08-26T12:27:53.638Z,1011.25
2022-08-26T12:28:50.622Z,1011.24
2022-08-26T12:29:50.632Z,1011.22